sensor_id;sensor_type;location;lat;lon;timestamp;P1;durP1;ratioP1;P2;durP2;ratioP2
47958;SDS011;33718;50.910;-1.514;2023-10-13T00:00:44;8.20;;;3.17;;
47958;SDS011;33718;50.910;-1.514;2023-10-13T00:02:45;7.73;;;3.47;;
47958;SDS011;33718;50.910;-1.514;2023-10-13T00:04:48;5.78;;;4.60;;
47958;SDS011;33718;50.910;-1.514;2023-10-13T00:06:51;8.67;;;4.57;;
47958;SDS011;33718;50.910;-1.514;2023-10-13T00:08:54;11.13;;;3.37;;
47958;SDS011;33718;50.910;-1.514;2023-10-13T00:10:56;5.27;;;3.10;;
47958;SDS011;33718;50.910;-1.514;2023-10-13T00:13:04;4.03;;;2.27;;
47958;SDS011;33718;50.910;-1.514;2023-10-13T00:15:17;9.87;;;4.20;;
47958;SDS011;33718;50.910;-1.514;2023-10-13T00:17:18;3.80;;;2.20;;
47958;SDS011;33718;50.910;-1.514;2023-10-13T00:19:22;15.25;;;4.30;;
47958;SDS011;33718;50.910;-1.514;2023-10-13T00:21:25;6.90;;;2.95;;
47958;SDS011;33718;50.910;-1.514;2023-10-13T00:23:33;10.93;;;3.70;;
47958;SDS011;33718;50.910;-1.514;2023-10-13T00:25:34;4.43;;;2.57;;
47958;SDS011;33718;50.910;-1.514;2023-10-13T00:27:44;3.73;;;2.10;;
47958;SDS011;33718;50.910;-1.514;2023-10-13T00:29:46;5.43;;;3.53;;
47958;SDS011;33718;50.910;-1.514;2023-10-13T00:31:48;4.00;;;2.50;;
47958;SDS011;33718;50.910;-1.514;2023-10-13T00:33:50;4.03;;;2.50;;
47958;SDS011;33718;50.910;-1.514;2023-10-13T00:35:52;4.27;;;3.03;;
47958;SDS011;33718;50.910;-1.514;2023-10-13T00:37:55;4.20;;;2.83;;
47958;SDS011;33718;50.910;-1.514;2023-10-13T00:39:58;3.73;;;2.90;;
47958;SDS011;33718;50.910;-1.514;2023-10-13T00:42:04;3.77;;;2.10;;
47958;SDS011;33718;50.910;-1.514;2023-10-13T00:44:09;3.53;;;1.87;;
47958;SDS011;33718;50.910;-1.514;2023-10-13T00:46:11;3.23;;;1.50;;
47958;SDS011;33718;50.910;-1.514;2023-10-13T00:48:30;3.47;;;1.80;;
47958;SDS011;33718;50.910;-1.514;2023-10-13T00:50:43;3.20;;;1.57;;
47958;SDS011;33718;50.910;-1.514;2023-10-13T00:52:58;3.17;;;1.53;;
47958;SDS011;33718;50.910;-1.514;2023-10-13T00:55:11;7.50;;;3.97;;
47958;SDS011;33718;50.910;-1.514;2023-10-13T00:57:25;3.20;;;1.73;;
47958;SDS011;33718;50.910;-1.514;2023-10-13T00:59:41;3.20;;;1.67;;
47958;SDS011;33718;50.910;-1.514;2023-10-13T01:01:56;4.17;;;3.00;;
47958;SDS011;33718;50.910;-1.514;2023-10-13T01:04:04;3.43;;;2.27;;
47958;SDS011;33718;50.910;-1.514;2023-10-13T01:06:17;3.10;;;1.63;;
47958;SDS011;33718;50.910;-1.514;2023-10-13T01:08:32;6.00;;;2.28;;
47958;SDS011;33718;50.910;-1.514;2023-10-13T01:10:46;3.30;;;1.70;;
47958;SDS011;33718;50.910;-1.514;2023-10-13T01:12:59;3.40;;;1.75;;
47958;SDS011;33718;50.910;-1.514;2023-10-13T01:15:08;5.10;;;2.30;;
47958;SDS011;33718;50.910;-1.514;2023-10-13T01:17:21;5.27;;;2.50;;
47958;SDS011;33718;50.910;-1.514;2023-10-13T01:19:36;5.38;;;2.50;;
47958;SDS011;33718;50.910;-1.514;2023-10-13T01:21:55;4.78;;;3.13;;
47958;SDS011;33718;50.910;-1.514;2023-10-13T01:24:15;3.30;;;1.58;;
47958;SDS011;33718;50.910;-1.514;2023-10-13T01:26:28;8.07;;;3.15;;
47958;SDS011;33718;50.910;-1.514;2023-10-13T01:28:38;4.05;;;1.52;;
47958;SDS011;33718;50.910;-1.514;2023-10-13T01:30:47;26.40;;;11.20;;
47958;SDS011;33718;50.910;-1.514;2023-10-13T01:32:52;6.90;;;2.65;;
47958;SDS011;33718;50.910;-1.514;2023-10-13T01:34:55;38.65;;;11.55;;
47958;SDS011;33718;50.910;-1.514;2023-10-13T01:36:59;41.78;;;11.93;;
47958;SDS011;33718;50.910;-1.514;2023-10-13T01:39:07;49.40;;;14.35;;
47958;SDS011;33718;50.910;-1.514;2023-10-13T01:41:09;55.40;;;16.00;;
47958;SDS011;33718;50.910;-1.514;2023-10-13T01:43:10;74.75;;;21.77;;
47958;SDS011;33718;50.910;-1.514;2023-10-13T01:45:12;109.43;;;31.80;;
47958;SDS011;33718;50.910;-1.514;2023-10-13T01:47:16;149.68;;;43.20;;
47958;SDS011;33718;50.910;-1.514;2023-10-13T01:49:22;152.45;;;44.33;;
47958;SDS011;33718;50.910;-1.514;2023-10-13T01:51:24;154.68;;;44.85;;
47958;SDS011;33718;50.910;-1.514;2023-10-13T01:53:28;154.93;;;45.40;;
47958;SDS011;33718;50.910;-1.514;2023-10-13T01:55:30;155.48;;;45.28;;
47958;SDS011;33718;50.910;-1.514;2023-10-13T01:57:32;151.98;;;44.25;;
47958;SDS011;33718;50.910;-1.514;2023-10-13T01:59:34;150.88;;;44.67;;
47958;SDS011;33718;50.910;-1.514;2023-10-13T02:01:45;147.95;;;45.40;;
47958;SDS011;33718;50.910;-1.514;2023-10-13T02:03:46;150.13;;;45.58;;
47958;SDS011;33718;50.910;-1.514;2023-10-13T02:05:49;144.80;;;44.47;;
47958;SDS011;33718;50.910;-1.514;2023-10-13T02:07:54;142.93;;;44.53;;
47958;SDS011;33718;50.910;-1.514;2023-10-13T02:09:56;142.15;;;44.25;;
47958;SDS011;33718;50.910;-1.514;2023-10-13T02:11:58;140.57;;;43.95;;
47958;SDS011;33718;50.910;-1.514;2023-10-13T02:13:59;137.43;;;43.85;;
47958;SDS011;33718;50.910;-1.514;2023-10-13T02:16:01;137.48;;;44.10;;
47958;SDS011;33718;50.910;-1.514;2023-10-13T02:20:08;135.13;;;43.55;;
47958;SDS011;33718;50.910;-1.514;2023-10-13T02:22:15;134.60;;;43.30;;
47958;SDS011;33718;50.910;-1.514;2023-10-13T02:24:28;131.48;;;43.00;;
47958;SDS011;33718;50.910;-1.514;2023-10-13T02:26:31;129.35;;;43.00;;
47958;SDS011;33718;50.910;-1.514;2023-10-13T02:28:33;127.07;;;42.47;;
47958;SDS011;33718;50.910;-1.514;2023-10-13T02:30:44;125.45;;;42.10;;
47958;SDS011;33718;50.910;-1.514;2023-10-13T02:32:51;127.65;;;42.22;;
47958;SDS011;33718;50.910;-1.514;2023-10-13T02:34:54;123.32;;;42.08;;
47958;SDS011;33718;50.910;-1.514;2023-10-13T02:36:59;129.25;;;42.75;;
47958;SDS011;33718;50.910;-1.514;2023-10-13T02:39:00;129.10;;;42.95;;
47958;SDS011;33718;50.910;-1.514;2023-10-13T02:41:15;128.50;;;42.72;;
47958;SDS011;33718;50.910;-1.514;2023-10-13T02:43:27;11.50;;;6.82;;
47958;SDS011;33718;50.910;-1.514;2023-10-13T02:45:34;6.10;;;4.27;;
47958;SDS011;33718;50.910;-1.514;2023-10-13T02:47:39;241.73;;;62.33;;
47958;SDS011;33718;50.910;-1.514;2023-10-13T02:49:40;3.40;;;1.67;;
47958;SDS011;33718;50.910;-1.514;2023-10-13T02:51:47;3.57;;;2.00;;
47958;SDS011;33718;50.910;-1.514;2023-10-13T02:53:49;8.63;;;3.57;;
47958;SDS011;33718;50.910;-1.514;2023-10-13T02:55:51;3.57;;;1.87;;
47958;SDS011;33718;50.910;-1.514;2023-10-13T02:57:55;11.60;;;4.07;;
47958;SDS011;33718;50.910;-1.514;2023-10-13T02:59:58;3.40;;;1.77;;
47958;SDS011;33718;50.910;-1.514;2023-10-13T03:02:00;4.10;;;2.80;;
47958;SDS011;33718;50.910;-1.514;2023-10-13T03:04:04;4.10;;;1.47;;
47958;SDS011;33718;50.910;-1.514;2023-10-13T03:06:15;3.13;;;1.57;;
47958;SDS011;33718;50.910;-1.514;2023-10-13T03:08:17;3.53;;;1.83;;
47958;SDS011;33718;50.910;-1.514;2023-10-13T03:10:27;14.13;;;4.23;;
47958;SDS011;33718;50.910;-1.514;2023-10-13T03:12:30;9.00;;;3.43;;
47958;SDS011;33718;50.910;-1.514;2023-10-13T03:14:35;12.50;;;3.67;;
47958;SDS011;33718;50.910;-1.514;2023-10-13T03:16:36;13.83;;;3.93;;
47958;SDS011;33718;50.910;-1.514;2023-10-13T03:18:38;15.50;;;4.43;;
47958;SDS011;33718;50.910;-1.514;2023-10-13T03:20:39;10.23;;;3.63;;
47958;SDS011;33718;50.910;-1.514;2023-10-13T03:22:43;9.20;;;3.40;;
47958;SDS011;33718;50.910;-1.514;2023-10-13T03:24:48;19.83;;;6.00;;
47958;SDS011;33718;50.910;-1.514;2023-10-13T03:26:49;23.53;;;6.40;;
47958;SDS011;33718;50.910;-1.514;2023-10-13T03:28:53;25.13;;;7.33;;
47958;SDS011;33718;50.910;-1.514;2023-10-13T03:30:58;69.47;;;19.43;;
47958;SDS011;33718;50.910;-1.514;2023-10-13T03:33:03;191.03;;;50.93;;
47958;SDS011;33718;50.910;-1.514;2023-10-13T03:35:08;181.30;;;48.80;;
47958;SDS011;33718;50.910;-1.514;2023-10-13T03:37:16;144.53;;;40.90;;
47958;SDS011;33718;50.910;-1.514;2023-10-13T03:39:36;160.13;;;45.93;;
47958;SDS011;33718;50.910;-1.514;2023-10-13T03:41:38;162.57;;;46.33;;
47958;SDS011;33718;50.910;-1.514;2023-10-13T03:43:41;162.87;;;46.33;;
47958;SDS011;33718;50.910;-1.514;2023-10-13T03:46:08;162.20;;;46.77;;
47958;SDS011;33718;50.910;-1.514;2023-10-13T03:48:10;163.67;;;47.13;;
47958;SDS011;33718;50.910;-1.514;2023-10-13T03:50:27;163.57;;;48.03;;
47958;SDS011;33718;50.910;-1.514;2023-10-13T03:52:35;161.53;;;48.77;;
47958;SDS011;33718;50.910;-1.514;2023-10-13T03:54:49;157.73;;;48.33;;
47958;SDS011;33718;50.910;-1.514;2023-10-13T03:57:01;149.30;;;46.67;;
47958;SDS011;33718;50.910;-1.514;2023-10-13T03:59:22;144.20;;;45.63;;
47958;SDS011;33718;50.910;-1.514;2023-10-13T04:01:46;143.23;;;45.67;;
47958;SDS011;33718;50.910;-1.514;2023-10-13T04:04:02;139.45;;;45.55;;
47958;SDS011;33718;50.910;-1.514;2023-10-13T04:06:18;139.87;;;45.50;;
47958;SDS011;33718;50.910;-1.514;2023-10-13T04:08:44;140.60;;;44.72;;
47958;SDS011;33718;50.910;-1.514;2023-10-13T04:10:56;139.15;;;44.92;;
47958;SDS011;33718;50.910;-1.514;2023-10-13T04:13:00;137.25;;;44.45;;
47958;SDS011;33718;50.910;-1.514;2023-10-13T04:15:28;135.38;;;44.20;;
47958;SDS011;33718;50.910;-1.514;2023-10-13T04:17:58;142.63;;;45.93;;
47958;SDS011;33718;50.910;-1.514;2023-10-13T04:20:09;140.03;;;45.30;;
47958;SDS011;33718;50.910;-1.514;2023-10-13T04:22:19;135.38;;;44.40;;
47958;SDS011;33718;50.910;-1.514;2023-10-13T04:24:32;131.45;;;44.17;;
47958;SDS011;33718;50.910;-1.514;2023-10-13T04:27:08;132.13;;;43.92;;
47958;SDS011;33718;50.910;-1.514;2023-10-13T04:29:22;132.07;;;44.10;;
47958;SDS011;33718;50.910;-1.514;2023-10-13T04:31:49;131.77;;;43.90;;
47958;SDS011;33718;50.910;-1.514;2023-10-13T04:34:07;134.68;;;44.28;;
47958;SDS011;33718;50.910;-1.514;2023-10-13T04:36:17;132.23;;;44.10;;
47958;SDS011;33718;50.910;-1.514;2023-10-13T04:38:27;127.97;;;43.55;;
47958;SDS011;33718;50.910;-1.514;2023-10-13T04:40:35;127.15;;;43.47;;
47958;SDS011;33718;50.910;-1.514;2023-10-13T04:42:51;126.85;;;43.72;;
47958;SDS011;33718;50.910;-1.514;2023-10-13T04:44:58;125.70;;;43.40;;
47958;SDS011;33718;50.910;-1.514;2023-10-13T04:47:07;122.38;;;42.88;;
47958;SDS011;33718;50.910;-1.514;2023-10-13T04:49:09;123.28;;;43.08;;
47958;SDS011;33718;50.910;-1.514;2023-10-13T04:51:27;121.22;;;42.95;;
47958;SDS011;33718;50.910;-1.514;2023-10-13T04:53:47;122.40;;;42.92;;
47958;SDS011;33718;50.910;-1.514;2023-10-13T04:58:03;120.32;;;42.53;;
47958;SDS011;33718;50.910;-1.514;2023-10-13T05:00:37;119.35;;;42.80;;
47958;SDS011;33718;50.910;-1.514;2023-10-13T05:02:57;117.18;;;42.20;;
47958;SDS011;33718;50.910;-1.514;2023-10-13T05:05:07;114.45;;;42.17;;
47958;SDS011;33718;50.910;-1.514;2023-10-13T05:07:14;111.45;;;41.58;;
47958;SDS011;33718;50.910;-1.514;2023-10-13T05:09:46;110.85;;;41.63;;
47958;SDS011;33718;50.910;-1.514;2023-10-13T05:12:06;108.90;;;41.28;;
47958;SDS011;33718;50.910;-1.514;2023-10-13T05:14:26;108.32;;;41.15;;
47958;SDS011;33718;50.910;-1.514;2023-10-13T05:16:46;107.72;;;41.20;;
47958;SDS011;33718;50.910;-1.514;2023-10-13T05:19:07;106.03;;;41.17;;
47958;SDS011;33718;50.910;-1.514;2023-10-13T05:21:28;105.13;;;40.67;;
47958;SDS011;33718;50.910;-1.514;2023-10-13T05:23:48;104.88;;;40.72;;
47958;SDS011;33718;50.910;-1.514;2023-10-13T05:26:08;103.45;;;40.38;;
47958;SDS011;33718;50.910;-1.514;2023-10-13T05:28:28;103.20;;;40.47;;
47958;SDS011;33718;50.910;-1.514;2023-10-13T05:30:48;103.82;;;40.65;;
47958;SDS011;33718;50.910;-1.514;2023-10-13T05:33:08;103.68;;;40.72;;
47958;SDS011;33718;50.910;-1.514;2023-10-13T05:35:30;100.47;;;40.00;;
47958;SDS011;33718;50.910;-1.514;2023-10-13T05:37:50;98.90;;;40.15;;
47958;SDS011;33718;50.910;-1.514;2023-10-13T05:40:10;96.72;;;39.55;;
47958;SDS011;33718;50.910;-1.514;2023-10-13T05:42:30;94.15;;;38.92;;
47958;SDS011;33718;50.910;-1.514;2023-10-13T05:44:50;92.88;;;38.85;;
47958;SDS011;33718;50.910;-1.514;2023-10-13T05:47:18;92.55;;;38.88;;
47958;SDS011;33718;50.910;-1.514;2023-10-13T05:49:38;91.75;;;38.85;;
47958;SDS011;33718;50.910;-1.514;2023-10-13T05:51:51;92.43;;;39.03;;
47958;SDS011;33718;50.910;-1.514;2023-10-13T05:54:22;89.15;;;38.30;;
47958;SDS011;33718;50.910;-1.514;2023-10-13T05:56:23;86.85;;;37.60;;
47958;SDS011;33718;50.910;-1.514;2023-10-13T05:58:43;85.35;;;37.40;;
47958;SDS011;33718;50.910;-1.514;2023-10-13T06:01:04;83.57;;;37.17;;
47958;SDS011;33718;50.910;-1.514;2023-10-13T06:03:24;83.78;;;37.00;;
47958;SDS011;33718;50.910;-1.514;2023-10-13T06:05:44;82.03;;;36.60;;
47958;SDS011;33718;50.910;-1.514;2023-10-13T06:08:18;80.05;;;36.17;;
47958;SDS011;33718;50.910;-1.514;2023-10-13T06:10:38;80.10;;;36.28;;
47958;SDS011;33718;50.910;-1.514;2023-10-13T06:12:58;78.70;;;35.92;;
47958;SDS011;33718;50.910;-1.514;2023-10-13T06:15:18;77.93;;;35.63;;
47958;SDS011;33718;50.910;-1.514;2023-10-13T06:17:39;77.60;;;36.08;;
47958;SDS011;33718;50.910;-1.514;2023-10-13T06:19:59;74.28;;;34.50;;
47958;SDS011;33718;50.910;-1.514;2023-10-13T06:22:19;75.82;;;35.70;;
47958;SDS011;33718;50.910;-1.514;2023-10-13T06:24:39;75.82;;;35.88;;
47958;SDS011;33718;50.910;-1.514;2023-10-13T06:27:00;74.53;;;35.75;;
47958;SDS011;33718;50.910;-1.514;2023-10-13T06:29:20;72.80;;;35.55;;
47958;SDS011;33718;50.910;-1.514;2023-10-13T06:31:23;70.50;;;35.03;;
47958;SDS011;33718;50.910;-1.514;2023-10-13T06:33:27;71.10;;;35.83;;
47958;SDS011;33718;50.910;-1.514;2023-10-13T06:35:35;71.55;;;36.03;;
47958;SDS011;33718;50.910;-1.514;2023-10-13T06:37:40;69.35;;;34.88;;
47958;SDS011;33718;50.910;-1.514;2023-10-13T06:39:44;69.10;;;35.47;;
47958;SDS011;33718;50.910;-1.514;2023-10-13T06:41:47;68.53;;;35.65;;
47958;SDS011;33718;50.910;-1.514;2023-10-13T06:43:49;67.30;;;35.45;;
47958;SDS011;33718;50.910;-1.514;2023-10-13T06:46:01;66.60;;;35.20;;
47958;SDS011;33718;50.910;-1.514;2023-10-13T06:48:03;66.30;;;35.22;;
47958;SDS011;33718;50.910;-1.514;2023-10-13T06:50:06;63.78;;;34.35;;
47958;SDS011;33718;50.910;-1.514;2023-10-13T06:52:17;66.85;;;35.22;;
47958;SDS011;33718;50.910;-1.514;2023-10-13T06:54:19;62.00;;;33.95;;
47958;SDS011;33718;50.910;-1.514;2023-10-13T06:58:29;59.38;;;33.22;;
47958;SDS011;33718;50.910;-1.514;2023-10-13T07:00:33;57.72;;;32.78;;
47958;SDS011;33718;50.910;-1.514;2023-10-13T07:02:37;59.38;;;33.25;;
47958;SDS011;33718;50.910;-1.514;2023-10-13T07:06:45;59.10;;;33.35;;
47958;SDS011;33718;50.910;-1.514;2023-10-13T07:08:53;59.60;;;33.42;;
47958;SDS011;33718;50.910;-1.514;2023-10-13T07:10:57;55.42;;;32.03;;
47958;SDS011;33718;50.910;-1.514;2023-10-13T07:13:08;53.83;;;31.60;;
47958;SDS011;33718;50.910;-1.514;2023-10-13T07:15:12;50.88;;;30.85;;
47958;SDS011;33718;50.910;-1.514;2023-10-13T07:17:22;47.45;;;29.95;;
47958;SDS011;33718;50.910;-1.514;2023-10-13T07:19:29;50.38;;;30.90;;
47958;SDS011;33718;50.910;-1.514;2023-10-13T07:23:38;53.10;;;31.20;;
47958;SDS011;33718;50.910;-1.514;2023-10-13T07:25:42;50.42;;;30.85;;
47958;SDS011;33718;50.910;-1.514;2023-10-13T07:27:46;47.75;;;30.08;;
47958;SDS011;33718;50.910;-1.514;2023-10-13T07:29:52;44.00;;;28.75;;
47958;SDS011;33718;50.910;-1.514;2023-10-13T07:32:02;45.83;;;29.30;;
47958;SDS011;33718;50.910;-1.514;2023-10-13T07:34:07;46.35;;;29.65;;
47958;SDS011;33718;50.910;-1.514;2023-10-13T07:36:29;44.47;;;29.02;;
47958;SDS011;33718;50.910;-1.514;2023-10-13T07:38:42;42.90;;;28.63;;
47958;SDS011;33718;50.910;-1.514;2023-10-13T07:40:44;41.13;;;28.25;;
47958;SDS011;33718;50.910;-1.514;2023-10-13T07:42:55;33.83;;;25.60;;
47958;SDS011;33718;50.910;-1.514;2023-10-13T07:45:05;37.97;;;27.33;;
47958;SDS011;33718;50.910;-1.514;2023-10-13T07:47:07;41.00;;;28.33;;
47958;SDS011;33718;50.910;-1.514;2023-10-13T07:49:09;37.28;;;27.23;;
47958;SDS011;33718;50.910;-1.514;2023-10-13T07:51:13;34.35;;;26.17;;
47958;SDS011;33718;50.910;-1.514;2023-10-13T07:53:17;34.67;;;26.27;;
47958;SDS011;33718;50.910;-1.514;2023-10-13T07:55:25;33.53;;;25.50;;
47958;SDS011;33718;50.910;-1.514;2023-10-13T07:57:27;33.13;;;25.45;;
47958;SDS011;33718;50.910;-1.514;2023-10-13T07:59:31;29.13;;;23.73;;
47958;SDS011;33718;50.910;-1.514;2023-10-13T08:01:33;26.83;;;22.83;;
47958;SDS011;33718;50.910;-1.514;2023-10-13T08:03:36;25.48;;;22.23;;
47958;SDS011;33718;50.910;-1.514;2023-10-13T08:05:52;25.40;;;22.10;;
47958;SDS011;33718;50.910;-1.514;2023-10-13T08:08:06;22.92;;;20.58;;
47958;SDS011;33718;50.910;-1.514;2023-10-13T08:10:16;19.55;;;17.65;;
47958;SDS011;33718;50.910;-1.514;2023-10-13T08:12:18;18.00;;;16.20;;
47958;SDS011;33718;50.910;-1.514;2023-10-13T08:20:50;79.43;;;36.60;;
47958;SDS011;33718;50.910;-1.514;2023-10-13T08:22:53;38.30;;;27.63;;
47958;SDS011;33718;50.910;-1.514;2023-10-13T08:25:14;29.95;;;23.88;;
47958;SDS011;33718;50.910;-1.514;2023-10-13T08:27:26;29.48;;;23.75;;
47958;SDS011;33718;50.910;-1.514;2023-10-13T08:31:57;68.13;;;35.00;;
47958;SDS011;33718;50.910;-1.514;2023-10-13T08:34:36;29.98;;;23.80;;
47958;SDS011;33718;50.910;-1.514;2023-10-13T08:38:46;63.35;;;33.88;;
47958;SDS011;33718;50.910;-1.514;2023-10-13T08:43:16;64.13;;;34.00;;
47958;SDS011;33718;50.910;-1.514;2023-10-13T08:47:29;63.03;;;33.75;;
47958;SDS011;33718;50.910;-1.514;2023-10-13T08:51:41;58.92;;;32.85;;
47958;SDS011;33718;50.910;-1.514;2023-10-13T08:55:57;58.30;;;32.65;;
47958;SDS011;33718;50.910;-1.514;2023-10-13T09:00:15;44.20;;;29.15;;
47958;SDS011;33718;50.910;-1.514;2023-10-13T09:15:46;59.80;;;33.22;;
47958;SDS011;33718;50.910;-1.514;2023-10-13T09:41:14;62.53;;;33.80;;
47958;SDS011;33718;50.910;-1.514;2023-10-13T09:51:46;61.17;;;33.50;;
47958;SDS011;33718;50.910;-1.514;2023-10-13T10:29:57;47.50;;;30.17;;
47958;SDS011;33718;50.910;-1.514;2023-10-13T10:38:20;89.07;;;38.72;;
47958;SDS011;33718;50.910;-1.514;2023-10-13T10:42:51;88.60;;;38.58;;
47958;SDS011;33718;50.910;-1.514;2023-10-13T10:51:15;79.55;;;37.10;;
47958;SDS011;33718;50.910;-1.514;2023-10-13T10:55:20;70.97;;;35.75;;
47958;SDS011;33718;50.910;-1.514;2023-10-13T11:09:47;98.37;;;40.43;;
47958;SDS011;33718;50.910;-1.514;2023-10-13T11:11:49;56.75;;;32.78;;
47958;SDS011;33718;50.910;-1.514;2023-10-13T11:16:04;108.65;;;41.55;;
47958;SDS011;33718;50.910;-1.514;2023-10-13T11:33:01;44.22;;;29.52;;
47958;SDS011;33718;50.910;-1.514;2023-10-13T13:16:19;60.42;;;33.72;;
47958;SDS011;33718;50.910;-1.514;2023-10-13T13:18:38;55.08;;;32.42;;
47958;SDS011;33718;50.910;-1.514;2023-10-13T13:22:57;98.22;;;40.33;;
47958;SDS011;33718;50.910;-1.514;2023-10-13T13:25:09;53.70;;;32.05;;
47958;SDS011;33718;50.910;-1.514;2023-10-13T13:27:15;35.70;;;27.10;;
47958;SDS011;33718;50.910;-1.514;2023-10-13T13:29:26;26.20;;;22.35;;
47958;SDS011;33718;50.910;-1.514;2023-10-13T13:37:51;84.22;;;38.13;;
47958;SDS011;33718;50.910;-1.514;2023-10-13T13:42:24;87.43;;;39.03;;
47958;SDS011;33718;50.910;-1.514;2023-10-13T13:46:39;81.85;;;37.80;;
47958;SDS011;33718;50.910;-1.514;2023-10-13T13:50:55;70.37;;;35.77;;
47958;SDS011;33718;50.910;-1.514;2023-10-13T13:55:10;70.30;;;35.83;;
47958;SDS011;33718;50.910;-1.514;2023-10-13T13:59:14;65.25;;;34.70;;
47958;SDS011;33718;50.910;-1.514;2023-10-13T14:03:23;60.92;;;33.90;;
47958;SDS011;33718;50.910;-1.514;2023-10-13T14:07:35;53.03;;;32.10;;
47958;SDS011;33718;50.910;-1.514;2023-10-13T17:25:35;55.55;;;27.00;;
47958;SDS011;33718;50.910;-1.514;2023-10-13T17:27:40;93.13;;;39.65;;
47958;SDS011;33718;50.910;-1.514;2023-10-13T17:29:42;70.18;;;35.20;;
47958;SDS011;33718;50.910;-1.514;2023-10-13T17:31:43;69.47;;;35.00;;
47958;SDS011;33718;50.910;-1.514;2023-10-13T17:33:51;62.35;;;33.60;;
47958;SDS011;33718;50.910;-1.514;2023-10-13T17:35:56;61.30;;;33.60;;
47958;SDS011;33718;50.910;-1.514;2023-10-13T17:37:57;59.22;;;33.00;;
47958;SDS011;33718;50.910;-1.514;2023-10-13T17:39:59;60.85;;;33.35;;
47958;SDS011;33718;50.910;-1.514;2023-10-13T17:42:04;61.47;;;33.50;;
47958;SDS011;33718;50.910;-1.514;2023-10-13T17:44:06;59.28;;;32.83;;
47958;SDS011;33718;50.910;-1.514;2023-10-13T17:46:09;59.50;;;33.03;;
47958;SDS011;33718;50.910;-1.514;2023-10-13T17:48:16;59.25;;;33.05;;
47958;SDS011;33718;50.910;-1.514;2023-10-13T17:50:18;57.95;;;32.75;;
47958;SDS011;33718;50.910;-1.514;2023-10-13T17:52:21;74.93;;;35.63;;
47958;SDS011;33718;50.910;-1.514;2023-10-13T17:54:22;86.07;;;38.88;;
47958;SDS011;33718;50.910;-1.514;2023-10-13T17:56:24;77.45;;;37.20;;
47958;SDS011;33718;50.910;-1.514;2023-10-13T17:58:26;62.67;;;33.83;;
47958;SDS011;33718;50.910;-1.514;2023-10-13T18:00:27;61.15;;;33.45;;
47958;SDS011;33718;50.910;-1.514;2023-10-13T18:02:29;59.88;;;33.05;;
47958;SDS011;33718;50.910;-1.514;2023-10-13T18:04:32;59.35;;;32.95;;
47958;SDS011;33718;50.910;-1.514;2023-10-13T18:06:34;57.63;;;32.53;;
47958;SDS011;33718;50.910;-1.514;2023-10-13T18:08:38;52.53;;;31.30;;
47958;SDS011;33718;50.910;-1.514;2023-10-13T18:10:40;55.17;;;31.92;;
47958;SDS011;33718;50.910;-1.514;2023-10-13T18:12:45;60.95;;;33.53;;
47958;SDS011;33718;50.910;-1.514;2023-10-13T18:14:48;57.58;;;32.75;;
47958;SDS011;33718;50.910;-1.514;2023-10-13T18:16:52;55.05;;;31.38;;
47958;SDS011;33718;50.910;-1.514;2023-10-13T18:18:56;53.55;;;30.83;;
47958;SDS011;33718;50.910;-1.514;2023-10-13T18:21:01;52.80;;;30.65;;
47958;SDS011;33718;50.910;-1.514;2023-10-13T18:23:03;53.72;;;30.88;;
47958;SDS011;33718;50.910;-1.514;2023-10-13T18:25:05;52.67;;;30.60;;
47958;SDS011;33718;50.910;-1.514;2023-10-13T18:27:13;51.08;;;30.52;;
47958;SDS011;33718;50.910;-1.514;2023-10-13T18:29:15;50.38;;;30.17;;
47958;SDS011;33718;50.910;-1.514;2023-10-13T18:31:17;49.33;;;30.02;;
47958;SDS011;33718;50.910;-1.514;2023-10-13T18:33:19;49.53;;;30.00;;
47958;SDS011;33718;50.910;-1.514;2023-10-13T18:35:23;64.55;;;33.63;;
47958;SDS011;33718;50.910;-1.514;2023-10-13T18:37:24;73.80;;;35.65;;
47958;SDS011;33718;50.910;-1.514;2023-10-13T18:39:26;71.95;;;35.40;;
47958;SDS011;33718;50.910;-1.514;2023-10-13T18:41:35;62.35;;;33.33;;
47958;SDS011;33718;50.910;-1.514;2023-10-13T18:43:41;47.67;;;29.23;;
47958;SDS011;33718;50.910;-1.514;2023-10-13T18:45:43;54.10;;;31.08;;
47958;SDS011;33718;50.910;-1.514;2023-10-13T18:47:45;39.72;;;26.90;;
47958;SDS011;33718;50.910;-1.514;2023-10-13T18:49:47;39.70;;;27.08;;
47958;SDS011;33718;50.910;-1.514;2023-10-13T18:51:49;41.17;;;27.60;;
47958;SDS011;33718;50.910;-1.514;2023-10-13T18:53:50;38.88;;;26.73;;
47958;SDS011;33718;50.910;-1.514;2023-10-13T18:55:52;39.67;;;27.05;;
47958;SDS011;33718;50.910;-1.514;2023-10-13T18:57:53;38.08;;;26.38;;
47958;SDS011;33718;50.910;-1.514;2023-10-13T18:59:56;36.97;;;26.38;;
47958;SDS011;33718;50.910;-1.514;2023-10-13T19:01:58;35.40;;;25.58;;
47958;SDS011;33718;50.910;-1.514;2023-10-13T19:04:00;35.25;;;25.83;;
47958;SDS011;33718;50.910;-1.514;2023-10-13T19:06:02;34.85;;;25.25;;
47958;SDS011;33718;50.910;-1.514;2023-10-13T19:08:04;35.05;;;25.40;;
47958;SDS011;33718;50.910;-1.514;2023-10-13T19:10:09;35.08;;;25.30;;
47958;SDS011;33718;50.910;-1.514;2023-10-13T19:12:17;34.88;;;25.25;;
47958;SDS011;33718;50.910;-1.514;2023-10-13T19:14:24;33.92;;;24.73;;
47958;SDS011;33718;50.910;-1.514;2023-10-13T19:16:25;33.80;;;24.80;;
47958;SDS011;33718;50.910;-1.514;2023-10-13T19:18:27;34.88;;;25.00;;
47958;SDS011;33718;50.910;-1.514;2023-10-13T19:20:30;33.78;;;24.83;;
47958;SDS011;33718;50.910;-1.514;2023-10-13T19:22:37;33.83;;;24.75;;
47958;SDS011;33718;50.910;-1.514;2023-10-13T19:24:47;30.33;;;23.27;;
47958;SDS011;33718;50.910;-1.514;2023-10-13T19:27:02;32.22;;;23.95;;
47958;SDS011;33718;50.910;-1.514;2023-10-13T19:29:12;31.83;;;23.92;;
47958;SDS011;33718;50.910;-1.514;2023-10-13T19:31:27;31.33;;;23.70;;
47958;SDS011;33718;50.910;-1.514;2023-10-13T19:33:39;29.80;;;23.17;;
47958;SDS011;33718;50.910;-1.514;2023-10-13T19:35:56;25.13;;;21.30;;
47958;SDS011;33718;50.910;-1.514;2023-10-13T19:38:06;22.58;;;20.15;;
47958;SDS011;33718;50.910;-1.514;2023-10-13T19:40:16;22.13;;;19.88;;
47958;SDS011;33718;50.910;-1.514;2023-10-13T19:42:28;20.50;;;18.58;;
47958;SDS011;33718;50.910;-1.514;2023-10-13T19:46:54;38.05;;;26.30;;
47958;SDS011;33718;50.910;-1.514;2023-10-13T19:49:00;27.42;;;22.17;;
47958;SDS011;33718;50.910;-1.514;2023-10-13T19:51:09;26.48;;;21.75;;
47958;SDS011;33718;50.910;-1.514;2023-10-13T19:53:19;24.33;;;21.02;;
47958;SDS011;33718;50.910;-1.514;2023-10-13T19:55:28;25.55;;;21.40;;
47958;SDS011;33718;50.910;-1.514;2023-10-13T19:57:37;21.45;;;19.30;;
47958;SDS011;33718;50.910;-1.514;2023-10-13T19:59:53;19.00;;;17.20;;
47958;SDS011;33718;50.910;-1.514;2023-10-13T20:02:00;17.50;;;15.70;;
47958;SDS011;33718;50.910;-1.514;2023-10-13T20:06:12;37.20;;;26.02;;
47958;SDS011;33718;50.910;-1.514;2023-10-13T20:10:17;37.55;;;26.02;;
47958;SDS011;33718;50.910;-1.514;2023-10-13T20:12:19;25.60;;;21.33;;
47958;SDS011;33718;50.910;-1.514;2023-10-13T20:14:20;26.55;;;21.67;;
47958;SDS011;33718;50.910;-1.514;2023-10-13T20:16:22;23.27;;;20.52;;
47958;SDS011;33718;50.910;-1.514;2023-10-13T20:20:32;37.72;;;26.17;;
47958;SDS011;33718;50.910;-1.514;2023-10-13T20:24:35;36.47;;;25.55;;
47958;SDS011;33718;50.910;-1.514;2023-10-13T20:30:46;35.17;;;25.13;;
47958;SDS011;33718;50.910;-1.514;2023-10-13T20:34:49;35.22;;;25.23;;
47958;SDS011;33718;50.910;-1.514;2023-10-13T20:38:56;31.75;;;24.05;;
47958;SDS011;33718;50.910;-1.514;2023-10-13T20:43:01;29.58;;;23.20;;